createdAt,value
2018-08-22T00:01:14.714Z,42.10
2018-08-22T00:03:43.578Z,42.60
2018-08-22T00:06:12.431Z,42.30
2018-08-22T00:08:43.957Z,42.30
2018-08-22T00:11:13.662Z,42.40
2018-08-22T00:13:43.539Z,42.40
2018-08-22T00:16:12.361Z,42.60
2018-08-22T00:18:41.237Z,42.60
2018-08-22T00:21:10.063Z,42.60
2018-08-22T00:23:38.935Z,42.70
2018-08-22T00:26:07.804Z,42.70
2018-08-22T00:28:36.663Z,42.70
2018-08-22T00:31:05.623Z,42.80
2018-08-22T00:33:34.490Z,42.90
2018-08-22T00:36:03.311Z,43.00
2018-08-22T00:38:32.174Z,43.10
2018-08-22T00:41:01.010Z,43.10
2018-08-22T00:43:29.934Z,44.00
2018-08-22T00:45:58.842Z,43.30
2018-08-22T00:48:27.731Z,44.10
2018-08-22T00:50:56.562Z,43.40
2018-08-22T00:53:25.423Z,43.70
2018-08-22T00:55:54.265Z,43.60
2018-08-22T00:58:23.115Z,43.70
2018-08-22T01:00:51.952Z,43.80
2018-08-22T01:03:20.814Z,43.90
2018-08-22T01:05:49.663Z,43.90
2018-08-22T01:08:18.549Z,44.00
2018-08-22T01:10:47.397Z,43.90
2018-08-22T01:13:16.248Z,44.10
2018-08-22T01:15:45.104Z,44.20
2018-08-22T01:18:13.960Z,44.20
2018-08-22T01:20:42.795Z,44.40
2018-08-22T01:23:11.647Z,44.30
2018-08-22T01:25:40.602Z,44.40
2018-08-22T01:28:09.437Z,44.50
2018-08-22T01:30:38.294Z,44.50
2018-08-22T01:33:07.202Z,44.50
2018-08-22T01:35:36.054Z,44.60
2018-08-22T01:38:04.891Z,44.60
2018-08-22T01:40:33.794Z,44.70
2018-08-22T01:43:02.618Z,44.60
2018-08-22T01:45:31.466Z,44.80
2018-08-22T01:48:00.304Z,44.90
2018-08-22T01:50:29.194Z,44.90
2018-08-22T01:52:58.034Z,45.00
2018-08-22T01:55:26.913Z,45.00
2018-08-22T01:57:55.746Z,45.00
2018-08-22T02:00:24.711Z,45.10
2018-08-22T02:02:53.535Z,45.20
2018-08-22T02:05:22.419Z,45.30
2018-08-22T02:07:51.270Z,45.30
2018-08-22T02:10:20.175Z,45.30
2018-08-22T02:12:49.012Z,45.40
2018-08-22T02:15:17.919Z,45.40
2018-08-22T02:17:46.754Z,45.60
2018-08-22T02:20:15.623Z,45.50
2018-08-22T02:22:44.456Z,45.70
2018-08-22T02:25:13.415Z,45.80
2018-08-22T02:27:42.240Z,45.80
2018-08-22T02:30:11.112Z,46.00
2018-08-22T02:32:39.948Z,46.10
2018-08-22T02:35:08.826Z,46.20
2018-08-22T02:37:37.697Z,46.20
2018-08-22T02:40:06.589Z,46.30
2018-08-22T02:42:35.412Z,47.30
2018-08-22T02:45:04.293Z,46.50
2018-08-22T02:47:33.108Z,46.80
2018-08-22T02:50:01.979Z,46.80
2018-08-22T02:52:30.843Z,46.70
2018-08-22T02:54:59.719Z,46.80
2018-08-22T02:57:28.551Z,46.90
2018-08-22T02:59:57.442Z,47.00
2018-08-22T03:02:26.267Z,47.00
2018-08-22T03:04:55.172Z,47.10
2018-08-22T03:07:24.004Z,47.10
2018-08-22T03:09:52.871Z,47.30
2018-08-22T03:12:21.711Z,47.30
2018-08-22T03:14:50.654Z,47.30
2018-08-22T03:17:19.554Z,47.30
2018-08-22T03:19:48.415Z,47.30
2018-08-22T03:22:17.678Z,47.60
2018-08-22T03:24:46.551Z,48.00
2018-08-22T03:27:15.447Z,47.60
2018-08-22T03:29:44.307Z,47.70
2018-08-22T03:32:13.144Z,47.70
2018-08-22T03:34:42.023Z,47.80
2018-08-22T03:37:10.846Z,47.90
2018-08-22T03:39:39.730Z,47.90
2018-08-22T03:42:08.586Z,47.80
2018-08-22T03:44:37.410Z,47.80
2018-08-22T03:47:06.306Z,47.90
2018-08-22T03:49:35.134Z,48.00
2018-08-22T03:52:04.054Z,48.20
2018-08-22T03:54:32.874Z,48.00
2018-08-22T03:57:01.763Z,48.10
2018-08-22T03:59:30.767Z,48.10
2018-08-22T04:01:59.734Z,48.20
2018-08-22T04:04:28.605Z,48.20
2018-08-22T04:06:57.463Z,48.30
2018-08-22T04:09:26.296Z,48.30
2018-08-22T04:11:55.162Z,48.40
2018-08-22T04:14:24.002Z,48.40
2018-08-22T04:16:52.881Z,48.40
2018-08-22T04:19:21.719Z,48.50
2018-08-22T04:21:50.579Z,48.50
2018-08-22T04:24:19.415Z,48.50
2018-08-22T04:26:48.398Z,48.60
2018-08-22T04:29:17.264Z,48.70
2018-08-22T04:31:46.139Z,48.70
2018-08-22T04:34:14.984Z,48.80
2018-08-22T04:36:43.859Z,48.80
2018-08-22T04:39:12.691Z,49.50
2018-08-22T04:41:41.564Z,48.90
2018-08-22T04:44:10.427Z,49.60
2018-08-22T04:46:39.295Z,49.00
2018-08-22T04:49:08.130Z,49.10
2018-08-22T04:51:36.999Z,49.10
2018-08-22T04:54:05.964Z,49.10
2018-08-22T04:56:34.826Z,49.20
2018-08-22T04:59:03.660Z,49.20
2018-08-22T05:01:32.527Z,49.20
2018-08-22T05:04:01.349Z,49.30
2018-08-22T05:06:30.219Z,49.30
2018-08-22T05:08:59.084Z,49.50
2018-08-22T05:11:27.955Z,49.50
2018-08-22T05:13:56.796Z,49.50
2018-08-22T05:16:25.666Z,49.60
2018-08-22T05:18:54.490Z,49.60
2018-08-22T05:21:23.352Z,49.70
2018-08-22T05:23:52.189Z,49.60
2018-08-22T05:26:21.092Z,49.70
2018-08-22T05:28:49.963Z,49.70
2018-08-22T05:31:18.849Z,49.70
2018-08-22T05:33:47.687Z,49.70
2018-08-22T05:36:16.525Z,49.70
2018-08-22T05:38:45.338Z,50.40
2018-08-22T05:41:14.212Z,49.70
2018-08-22T05:43:43.506Z,50.40
2018-08-22T05:46:12.407Z,49.70
2018-08-22T05:48:41.466Z,49.70
2018-08-22T05:51:10.406Z,49.80
2018-08-22T05:53:39.275Z,49.90
2018-08-22T05:56:08.151Z,49.90
2018-08-22T05:58:37.027Z,49.90
2018-08-22T06:01:05.882Z,49.90
2018-08-22T06:03:34.743Z,49.90
2018-08-22T06:06:03.570Z,49.90
2018-08-22T06:08:32.457Z,49.90
2018-08-22T06:11:01.255Z,50.00
2018-08-22T06:13:30.175Z,50.00
2018-08-22T06:15:59.007Z,50.00
2018-08-22T06:18:27.918Z,50.10
2018-08-22T06:20:56.740Z,50.10
2018-08-22T06:23:26.487Z,50.10
2018-08-22T06:25:55.327Z,50.10
2018-08-22T06:28:24.231Z,50.20
2018-08-22T06:30:53.070Z,50.40
2018-08-22T06:33:21.911Z,50.40
2018-08-22T06:35:50.751Z,50.40
2018-08-22T06:38:19.647Z,50.40
2018-08-22T06:40:48.513Z,50.40
2018-08-22T06:43:17.415Z,50.80
2018-08-22T06:45:46.270Z,50.40
2018-08-22T06:48:15.135Z,50.40
2018-08-22T06:50:43.967Z,50.50
2018-08-22T06:53:12.829Z,50.40
2018-08-22T06:55:41.681Z,50.40
2018-08-22T06:58:10.590Z,50.50
2018-08-22T07:00:39.426Z,50.40
2018-08-22T07:03:09.139Z,50.40
2018-08-22T07:05:37.975Z,50.40
2018-08-22T07:08:07.005Z,50.20
2018-08-22T07:10:35.837Z,50.20
2018-08-22T07:13:04.711Z,50.30
2018-08-22T07:15:33.535Z,50.30
2018-08-22T07:18:02.411Z,50.30
2018-08-22T07:20:31.271Z,50.30
2018-08-22T07:23:00.108Z,50.20
2018-08-22T07:25:28.943Z,50.20
2018-08-22T07:27:57.848Z,50.20
2018-08-22T07:30:26.691Z,50.10
2018-08-22T07:32:55.561Z,50.10
2018-08-22T07:35:24.461Z,50.10
2018-08-22T07:37:53.314Z,50.10
2018-08-22T07:40:22.135Z,50.00
2018-08-22T07:42:51.082Z,49.90
2018-08-22T07:45:19.944Z,49.70
2018-08-22T07:47:48.809Z,49.70
2018-08-22T07:50:17.641Z,49.60
2018-08-22T07:53:04.047Z,49.60
2018-08-22T07:55:36.663Z,49.50
2018-08-22T07:58:05.965Z,49.40
2018-08-22T08:00:34.863Z,49.40
2018-08-22T08:03:03.755Z,49.40
2018-08-22T08:05:32.587Z,49.20
2018-08-22T08:08:01.454Z,49.20
2018-08-22T08:10:31.937Z,49.00
2018-08-22T08:13:01.152Z,49.00
2018-08-22T08:15:30.038Z,48.80
2018-08-22T08:17:59.194Z,48.80
2018-08-22T08:20:28.098Z,48.60
2018-08-22T08:22:56.910Z,48.70
2018-08-22T08:25:25.755Z,48.70
2018-08-22T08:27:54.670Z,48.60
2018-08-22T08:30:23.637Z,48.50
2018-08-22T08:32:52.531Z,48.40
2018-08-22T08:35:21.398Z,48.30
2018-08-22T08:37:50.267Z,48.30
2018-08-22T08:40:19.215Z,48.20
2018-08-22T08:42:48.088Z,48.20
2018-08-22T08:45:16.993Z,48.10
2018-08-22T08:47:45.884Z,48.10
2018-08-22T08:50:14.845Z,48.00
2018-08-22T08:52:43.651Z,48.00
2018-08-22T08:55:12.529Z,47.90
2018-08-22T08:57:41.374Z,47.90
2018-08-22T09:00:10.238Z,47.90
2018-08-22T09:02:39.102Z,47.70
2018-08-22T09:05:08.651Z,47.70
2018-08-22T09:07:37.498Z,47.70
2018-08-22T09:10:06.732Z,47.70
2018-08-22T09:12:37.386Z,47.60
2018-08-22T09:15:07.560Z,47.50
2018-08-22T09:17:36.388Z,47.50
2018-08-22T09:20:06.555Z,47.40
2018-08-22T09:22:35.395Z,47.30
2018-08-22T09:25:04.590Z,47.30
2018-08-22T09:27:33.463Z,47.40
2018-08-22T09:30:03.002Z,47.30
2018-08-22T09:32:31.811Z,47.20
2018-08-22T09:35:00.935Z,47.20
2018-08-22T09:37:29.783Z,47.10
2018-08-22T09:39:58.698Z,47.10
2018-08-22T09:42:27.564Z,47.10
2018-08-22T09:44:56.436Z,47.00
2018-08-22T09:47:25.270Z,47.00
2018-08-22T09:49:54.143Z,47.00
2018-08-22T09:52:22.978Z,46.90
2018-08-22T09:55:04.727Z,46.80
2018-08-22T09:57:33.614Z,46.80
2018-08-22T10:00:02.710Z,46.70
2018-08-22T10:02:31.564Z,46.70
2018-08-22T10:05:00.526Z,46.70
2018-08-22T10:07:29.438Z,46.40
2018-08-22T10:09:58.284Z,46.40
2018-08-22T10:12:27.111Z,46.30
2018-08-22T10:14:55.971Z,46.20
2018-08-22T10:17:24.824Z,46.20
2018-08-22T10:19:53.726Z,46.10
2018-08-22T10:22:22.587Z,46.10
2018-08-22T10:24:51.452Z,45.90
2018-08-22T10:27:20.287Z,45.90
2018-08-22T10:29:49.143Z,45.80
2018-08-22T10:32:18.019Z,45.50
2018-08-22T10:34:46.854Z,45.50
2018-08-22T10:37:15.852Z,45.40
2018-08-22T10:39:45.269Z,45.30
2018-08-22T10:42:14.155Z,44.90
2018-08-22T10:44:42.991Z,45.00
2018-08-22T10:47:11.846Z,44.90
2018-08-22T10:49:40.691Z,44.80
2018-08-22T10:52:09.567Z,44.70
2018-08-22T10:54:38.394Z,45.20
2018-08-22T10:57:07.297Z,44.40
2018-08-22T10:59:36.847Z,43.90
2018-08-22T11:02:05.811Z,44.00
2018-08-22T11:04:34.654Z,43.90
2018-08-22T11:07:03.536Z,43.80
2018-08-22T11:09:32.371Z,43.80
2018-08-22T11:12:01.308Z,43.60
2018-08-22T11:14:30.151Z,43.60
2018-08-22T11:16:59.035Z,43.40
2018-08-22T11:19:27.875Z,43.40
2018-08-22T11:22:07.978Z,43.30
2018-08-22T11:24:47.876Z,43.10
2018-08-22T11:27:27.827Z,43.10
2018-08-22T11:30:07.736Z,43.00
2018-08-22T11:32:47.573Z,42.10
2018-08-22T11:35:15.083Z,42.10
2018-08-22T11:37:43.958Z,42.60
2018-08-22T11:40:12.807Z,42.70
2018-08-22T11:42:41.675Z,42.70
2018-08-22T11:45:10.523Z,42.70
2018-08-22T11:47:39.391Z,42.50
2018-08-22T11:50:08.231Z,42.30
2018-08-22T11:52:37.107Z,42.30
2018-08-22T11:55:06.671Z,42.20
2018-08-22T11:57:35.600Z,42.10
2018-08-22T12:00:06.572Z,41.50
2018-08-22T12:02:35.869Z,41.30
2018-08-22T12:05:05.276Z,41.50
2018-08-22T12:07:34.151Z,41.40
2018-08-22T12:10:03.563Z,41.30
2018-08-22T12:12:32.435Z,41.10
2018-08-22T12:15:01.295Z,40.90
2018-08-22T12:17:30.245Z,40.80
2018-08-22T12:19:59.107Z,40.70
2018-08-22T12:22:28.039Z,40.80
2018-08-22T12:24:56.863Z,40.80
2018-08-22T12:27:25.729Z,40.60
2018-08-22T12:29:54.567Z,40.90
2018-08-22T12:32:23.459Z,40.80
2018-08-22T12:34:52.359Z,40.80
2018-08-22T12:37:21.234Z,41.00
2018-08-22T12:39:50.088Z,40.90
2018-08-22T12:42:18.959Z,41.00
2018-08-22T12:44:47.905Z,41.00
2018-08-22T12:47:16.791Z,41.00
2018-08-22T12:49:45.634Z,40.90
2018-08-22T12:52:14.496Z,41.00
2018-08-22T12:54:43.351Z,41.00
2018-08-22T12:57:12.252Z,40.90
2018-08-22T12:59:41.099Z,41.00
2018-08-22T13:02:10.881Z,40.70
2018-08-22T13:04:39.785Z,40.40
2018-08-22T13:07:08.626Z,39.40
2018-08-22T13:09:37.476Z,39.80
2018-08-22T13:12:06.380Z,39.80
2018-08-22T13:14:35.212Z,39.50
2018-08-22T13:17:04.121Z,39.40
2018-08-22T13:19:32.983Z,39.30
2018-08-22T13:22:01.830Z,39.10
2018-08-22T13:24:30.749Z,39.10
2018-08-22T13:26:59.591Z,38.50
2018-08-22T13:29:28.526Z,38.00
2018-08-22T13:31:57.379Z,38.40
2018-08-22T13:34:26.311Z,38.10
2018-08-22T13:36:55.151Z,37.70
2018-08-22T13:39:24.061Z,37.70
2018-08-22T13:41:52.903Z,37.50
2018-08-22T13:44:21.778Z,36.70
2018-08-22T13:46:50.623Z,36.90
2018-08-22T13:49:19.485Z,36.90
2018-08-22T13:51:48.405Z,36.90
2018-08-22T13:54:17.263Z,36.80
2018-08-22T13:56:46.094Z,36.70
2018-08-22T13:59:14.967Z,36.60
2018-08-22T14:01:43.827Z,36.30
2018-08-22T14:04:12.710Z,35.90
2018-08-22T14:06:41.540Z,35.90
2018-08-22T14:09:11.468Z,35.90
2018-08-22T14:11:40.509Z,35.90
2018-08-22T14:14:09.375Z,35.40
2018-08-22T14:16:38.282Z,35.60
2018-08-22T14:19:07.150Z,35.40
2018-08-22T14:21:36.092Z,35.00
2018-08-22T14:24:04.964Z,35.00
2018-08-22T14:26:33.772Z,35.00
2018-08-22T14:29:02.643Z,34.80
2018-08-22T14:31:31.490Z,34.60
2018-08-22T14:34:00.376Z,34.80
2018-08-22T14:36:29.262Z,34.90
2018-08-22T14:38:58.110Z,34.90
2018-08-22T14:41:26.968Z,34.70
2018-08-22T14:43:55.854Z,34.80
2018-08-22T14:46:24.675Z,34.70
2018-08-22T14:48:53.544Z,34.60
2018-08-22T14:51:22.372Z,34.50
2018-08-22T14:53:51.254Z,34.30
2018-08-22T14:56:20.230Z,34.80
2018-08-22T14:58:49.056Z,33.80
2018-08-22T15:01:17.887Z,33.30
2018-08-22T15:03:46.749Z,33.30
2018-08-22T15:06:15.578Z,33.20
2018-08-22T15:08:44.479Z,33.20
2018-08-22T15:11:13.340Z,32.90
2018-08-22T15:13:42.275Z,32.70
2018-08-22T15:16:11.090Z,32.60
2018-08-22T15:18:40.047Z,32.50
2018-08-22T15:21:08.878Z,32.30
2018-08-22T15:23:37.775Z,32.10
2018-08-22T15:26:06.712Z,32.10
2018-08-22T15:28:35.587Z,31.60
2018-08-22T15:31:04.406Z,31.70
2018-08-22T15:33:33.262Z,31.40
2018-08-22T15:36:02.123Z,31.30
2018-08-22T15:38:30.987Z,31.20
2018-08-22T15:40:59.908Z,31.20
2018-08-22T15:43:28.793Z,31.00
2018-08-22T15:45:57.608Z,31.00
2018-08-22T15:48:26.483Z,31.00
2018-08-22T15:50:55.374Z,30.80
2018-08-22T15:53:24.262Z,30.60
2018-08-22T15:55:53.107Z,30.40
2018-08-22T15:58:21.969Z,30.40
2018-08-22T16:00:52.845Z,30.30
2018-08-22T16:03:22.424Z,30.00
2018-08-22T16:05:52.118Z,30.00
2018-08-22T16:08:23.489Z,30.00
2018-08-22T16:10:52.290Z,29.90
2018-08-22T16:13:26.329Z,29.80
2018-08-22T16:15:56.393Z,29.80
2018-08-22T16:18:25.238Z,29.80
2018-08-22T16:20:54.411Z,29.70
2018-08-22T16:23:27.212Z,29.70
2018-08-22T16:25:56.934Z,29.80
2018-08-22T16:28:26.580Z,29.70
2018-08-22T16:30:57.992Z,29.80
2018-08-22T16:33:26.887Z,29.80
2018-08-22T16:35:55.730Z,29.80
2018-08-22T16:38:24.579Z,30.20
2018-08-22T16:40:54.928Z,29.70
2018-08-22T16:43:41.092Z,29.80
2018-08-22T16:46:11.517Z,29.90
2018-08-22T16:48:41.156Z,29.80
2018-08-22T16:51:10.058Z,30.00
2018-08-22T16:53:39.949Z,30.20
2018-08-22T16:56:08.781Z,30.00
2018-08-22T16:58:37.643Z,30.20
2018-08-22T17:01:06.488Z,30.00
2018-08-22T17:03:35.342Z,30.10
2018-08-22T17:06:12.279Z,30.20
2018-08-22T17:08:41.498Z,30.10
2018-08-22T17:11:11.908Z,30.30
2018-08-22T17:13:44.167Z,30.00
2018-08-22T17:16:12.992Z,30.10
2018-08-22T17:18:41.840Z,30.00
2018-08-22T17:21:11.635Z,29.80
2018-08-22T17:23:40.820Z,29.90
2018-08-22T17:26:12.730Z,30.00
2018-08-22T17:28:43.578Z,30.00
2018-08-22T17:31:13.043Z,29.90
2018-08-22T17:33:43.091Z,30.00
2018-08-22T17:36:13.026Z,30.00
2018-08-22T17:38:44.074Z,30.20
2018-08-22T17:41:13.208Z,29.80
2018-08-22T17:43:57.468Z,30.10
2018-08-22T17:46:28.007Z,30.30
2018-08-22T17:48:56.998Z,30.40
2018-08-22T17:51:25.870Z,30.60
2018-08-22T17:53:54.683Z,30.80
2018-08-22T17:56:24.679Z,30.80
2018-08-22T17:58:54.522Z,31.00
2018-08-22T18:01:23.885Z,31.20
2018-08-22T18:03:55.058Z,31.30
2018-08-22T18:06:23.976Z,31.40
2018-08-22T18:08:52.867Z,31.50
2018-08-22T18:11:21.687Z,31.60
2018-08-22T18:13:50.596Z,31.70
2018-08-22T18:16:19.406Z,31.90
2018-08-22T18:18:50.888Z,32.00
2018-08-22T18:21:19.779Z,32.20
2018-08-22T18:23:53.218Z,32.20
2018-08-22T18:26:22.043Z,32.10
2018-08-22T18:28:50.941Z,32.40
2018-08-22T18:31:20.233Z,32.50
2018-08-22T18:33:59.538Z,32.70
2018-08-22T18:36:29.864Z,32.00
2018-08-22T18:39:03.071Z,32.50
2018-08-22T18:41:31.895Z,32.80
2018-08-22T18:44:00.863Z,32.80
2018-08-22T18:46:29.698Z,32.90
2018-08-22T18:48:58.624Z,32.90
2018-08-22T18:51:27.486Z,32.80
2018-08-22T18:53:56.330Z,32.90
2018-08-22T18:56:25.185Z,33.10
2018-08-22T18:58:54.031Z,33.10
2018-08-22T19:01:22.855Z,33.10
2018-08-22T19:03:51.995Z,33.20
2018-08-22T19:06:20.820Z,32.90
2018-08-22T19:08:49.693Z,33.10
2018-08-22T19:11:19.154Z,32.70
2018-08-22T19:13:48.091Z,32.80
2018-08-22T19:16:16.930Z,33.30
2018-08-22T19:18:45.802Z,33.40
2018-08-22T19:21:14.680Z,33.30
2018-08-22T19:23:45.019Z,33.50
2018-08-22T19:26:14.722Z,33.60
2018-08-22T19:28:56.018Z,33.30
2018-08-22T19:31:24.884Z,33.30
2018-08-22T19:33:53.951Z,33.50
2018-08-22T19:36:22.768Z,33.30
2018-08-22T19:38:51.650Z,33.40
2018-08-22T19:41:24.055Z,33.70
2018-08-22T19:43:52.983Z,33.80
2018-08-22T19:46:21.854Z,33.90
2018-08-22T19:48:50.795Z,33.70
2018-08-22T19:51:20.161Z,33.90
2018-08-22T19:54:06.390Z,33.60
2018-08-22T19:56:35.207Z,33.50
2018-08-22T19:59:04.941Z,33.60
2018-08-22T20:01:36.197Z,33.70
2018-08-22T20:04:05.056Z,33.40
2018-08-22T20:06:33.891Z,33.50
2018-08-22T20:09:02.843Z,34.10
2018-08-22T20:11:33.494Z,33.50
2018-08-22T20:14:06.619Z,33.40
2018-08-22T20:16:35.470Z,33.40
2018-08-22T20:19:05.287Z,33.50
2018-08-22T20:21:35.405Z,33.80
2018-08-22T20:24:06.660Z,33.80
2018-08-22T20:26:35.883Z,33.80
2018-08-22T20:29:05.387Z,33.80
2018-08-22T20:31:35.720Z,34.40
2018-08-22T20:34:21.905Z,33.80
2018-08-22T20:36:50.722Z,34.20
2018-08-22T20:39:19.585Z,34.50
2018-08-22T20:41:50.962Z,34.10
2018-08-22T20:44:22.144Z,34.50
2018-08-22T20:46:50.990Z,34.80
2018-08-22T20:49:20.723Z,34.80
2018-08-22T20:51:49.656Z,34.90
2018-08-22T20:54:21.634Z,35.00
2018-08-22T20:56:55.572Z,35.10
2018-08-22T20:59:24.420Z,35.10
2018-08-22T21:01:57.992Z,35.00
2018-08-22T21:04:26.861Z,35.10
2018-08-22T21:06:55.686Z,35.10
2018-08-22T21:09:24.536Z,34.80
2018-08-22T21:11:56.541Z,34.50
2018-08-22T21:14:26.817Z,34.90
2018-08-22T21:16:55.635Z,34.90
2018-08-22T21:19:24.463Z,34.80
2018-08-22T21:21:53.319Z,34.80
2018-08-22T21:24:22.208Z,35.00
2018-08-22T21:26:51.050Z,35.00
2018-08-22T21:29:19.858Z,35.10
2018-08-22T21:31:48.718Z,35.10
2018-08-22T21:34:22.116Z,35.00
2018-08-22T21:36:50.981Z,35.20
2018-08-22T21:39:23.762Z,35.30
2018-08-22T21:41:52.850Z,35.50
2018-08-22T21:44:22.689Z,35.80
2018-08-22T21:46:57.910Z,35.50
2018-08-22T21:49:26.855Z,35.70
2018-08-22T21:51:58.248Z,35.80
2018-08-22T21:54:27.472Z,35.70
2018-08-22T21:56:56.326Z,35.50
2018-08-22T21:59:25.143Z,35.80
2018-08-22T22:01:59.190Z,36.10
2018-08-22T22:04:32.819Z,36.20
2018-08-22T22:07:01.957Z,36.30
2018-08-22T22:09:30.796Z,36.40
2018-08-22T22:12:01.123Z,36.50
2018-08-22T22:14:34.094Z,36.50
2018-08-22T22:17:03.666Z,36.40
2018-08-22T22:19:33.783Z,36.40
2018-08-22T22:22:03.366Z,36.30
2018-08-22T22:24:32.287Z,36.10
2018-08-22T22:27:01.174Z,36.30
2018-08-22T22:29:31.579Z,36.10
2018-08-22T22:32:00.457Z,36.20
2018-08-22T22:34:29.299Z,36.60
2018-08-22T22:36:58.159Z,36.50
2018-08-22T22:39:41.461Z,36.80
2018-08-22T22:42:26.634Z,37.00
2018-08-22T22:44:56.622Z,37.10
2018-08-22T22:47:29.490Z,37.20
2018-08-22T22:49:59.878Z,37.10
2018-08-22T22:52:34.364Z,37.40
2018-08-22T22:55:04.359Z,37.30
2018-08-22T22:57:34.690Z,37.30
2018-08-22T23:00:04.351Z,37.40
2018-08-22T23:02:33.800Z,37.30
2018-08-22T23:05:02.897Z,37.30
2018-08-22T23:07:32.904Z,37.40
2018-08-22T23:10:04.227Z,37.90
2018-08-22T23:12:47.204Z,37.60
2018-08-22T23:15:24.363Z,37.60
2018-08-22T23:17:54.986Z,37.70
2018-08-22T23:20:38.706Z,37.90
2018-08-22T23:23:24.014Z,38.00
2018-08-22T23:25:52.916Z,37.90
2018-08-22T23:28:21.814Z,38.00
2018-08-22T23:30:50.766Z,38.00
2018-08-22T23:33:19.667Z,38.00
2018-08-22T23:35:48.531Z,38.10
2018-08-22T23:38:36.799Z,38.10
2018-08-22T23:41:05.674Z,38.20
2018-08-22T23:43:41.046Z,38.20
2018-08-22T23:46:11.299Z,38.10
2018-08-22T23:48:40.675Z,38.00
2018-08-22T23:51:12.811Z,37.90
2018-08-22T23:53:47.346Z,37.80
2018-08-22T23:56:19.031Z,37.90
2018-08-22T23:58:48.634Z,38.10
